Time;durP1;ratioP1;P1;durP2;ratioP2;P2;SDS_P1;SDS_P2;PMS_P1;PMS_P2;Temp;Humidity;BMP_temperature;BMP_pressure;BME280_temperature;BME280_humidity;BME280_pressure;Samples;Min_cycle;Max_cycle;Signal;HPM_P1;HPM_P2
2021/05/06 00:34:20;;;;;;;28.55;5.80;;;21.20;91.70;;;;;;5065118;28;20039;-64
2021/05/06 00:36:48;;;;;;;26.90;6.30;;;21.30;90.80;;;;;;5066574;28;20464;-64
2021/05/06 00:39:20;;;;;;;25.52;7.03;;;21.00;91.00;;;;;;5067025;28;20024;-71
2021/05/06 01:06:01;;;;;;;22.02;4.32;;;21.60;87.90;;;;;;4996825;28;20026;-73
2021/05/06 01:08:32;;;;;;;17.75;4.00;;;21.80;86.10;;;;;;4996139;28;20038;-64
2021/05/06 01:13:32;;;;;;;14.05;3.95;;;21.90;86.60;;;;;;5066948;28;20021;-63
2021/05/06 01:15:59;;;;;;;11.65;3.47;;;21.70;86.60;;;;;;5065643;28;20031;-64
2021/05/06 01:18:27;;;;;;;16.13;3.88;;;21.60;87.50;;;;;;5064094;28;20029;-63
2021/05/06 01:20:58;;;;;;;19.08;4.68;;;21.60;87.50;;;;;;5065442;28;20017;-63
2021/05/06 01:23:27;;;;;;;19.00;6.32;;;21.40;88.20;;;;;;5069324;23;20172;-63
2021/05/06 01:26:01;;;;;;;28.38;8.57;;;21.50;89.10;;;;;;5025346;28;20022;-63
2021/05/06 01:28:33;;;;;;;22.67;5.32;;;21.70;89.60;;;;;;5022260;28;20041;-69
2021/05/06 01:31:05;;;;;;;18.98;5.15;;;21.80;89.80;;;;;;5023592;28;20500;-64
2021/05/06 01:36:08;;;;;;;22.63;6.32;;;22.10;89.10;;;;;;5023432;28;20041;-69
2021/05/06 01:42:08;;;;;;;21.17;5.28;;;22.00;88.00;;;;;;5023885;28;20021;-63
2021/05/06 01:58:29;;;;;;;18.95;4.82;;;21.90;87.30;;;;;;5027474;28;20542;-67
2021/05/06 02:00:40;;;;;;;;;;;21.90;88.20;;;;;;5019934;28;20034;-66
2021/05/06 02:03:07;;;;;;;15.00;4.28;;;22.10;87.60;;;;;;5026808;28;19920;-66
2021/05/06 02:05:34;;;;;;;18.60;4.55;;;22.10;87.10;;;;;;5021609;28;20013;-65
2021/05/06 02:08:02;;;;;;;16.45;4.53;;;22.10;86.70;;;;;;5026819;28;20040;-64
2021/05/06 02:10:30;;;;;;;15.93;4.10;;;21.90;87.40;;;;;;5031932;28;20572;-65
2021/05/06 02:12:57;;;;;;;13.18;3.85;;;21.90;87.30;;;;;;5027679;28;20068;-65
2021/05/06 02:15:31;;;;;;;16.38;4.10;;;22.00;87.10;;;;;;5027001;28;20064;-64
2021/05/06 02:17:59;;;;;;;18.45;4.55;;;22.10;86.30;;;;;;5026438;28;20386;-67
2021/05/06 02:20:26;;;;;;;11.35;3.40;;;22.10;85.90;;;;;;5025487;28;20585;-67
2021/05/06 02:22:53;;;;;;;17.60;4.80;;;22.10;84.70;;;;;;5026674;28;20048;-64
2021/05/06 02:25:21;;;;;;;12.60;3.45;;;22.10;85.70;;;;;;5019709;28;20100;-68
2021/05/06 02:27:49;;;;;;;14.95;3.63;;;22.00;85.40;;;;;;5016802;28;20025;-68
2021/05/06 02:30:18;;;;;;;15.65;3.90;;;22.10;85.50;;;;;;5010897;28;20028;-65
2021/05/06 02:32:46;;;;;;;10.30;3.22;;;22.20;85.40;;;;;;5017445;28;20037;-65
2021/05/06 02:35:14;;;;;;;19.25;4.78;;;22.20;85.40;;;;;;5020004;28;20303;-68
2021/05/06 02:37:42;;;;;;;14.07;3.85;;;22.20;86.00;;;;;;5011096;28;20026;-66
2021/05/06 02:40:11;;;;;;;16.05;4.10;;;22.10;86.90;;;;;;5016642;28;20025;-69
2021/05/06 02:42:39;;;;;;;18.27;4.43;;;21.80;90.30;;;;;;5022351;28;20028;-68
2021/05/06 02:45:08;;;;;;;21.58;4.55;;;21.60;91.60;;;;;;5024125;28;20599;-66
2021/05/06 02:47:36;;;;;;;11.50;3.80;;;21.30;91.00;;;;;;5024110;28;20056;-68
2021/05/06 02:50:08;;;;;;;14.88;4.20;;;21.20;91.10;;;;;;5016850;28;20055;-67
2021/05/06 02:52:47;;;;;;;16.13;4.82;;;21.20;91.40;;;;;;5020255;28;20049;-68
2021/05/06 02:55:35;;;;;;;16.88;5.63;;;21.30;91.70;;;;;;5016148;28;20483;-67
2021/05/06 02:58:11;;;;;;;17.95;4.93;;;21.30;91.80;;;;;;5018363;28;20430;-68
2021/05/06 03:03:24;;;;;;;21.27;5.45;;;21.30;91.30;;;;;;5014976;28;20082;-68
2021/05/06 03:05:54;;;;;;;15.70;5.05;;;21.30;91.50;;;;;;5009293;28;20021;-68
2021/05/06 03:08:30;;;;;;;11.50;4.75;;;21.30;91.50;;;;;;5021570;28;20095;-65
2021/05/06 03:14:33;;;;;;;24.23;6.28;;;21.30;91.00;;;;;;5018769;28;20034;-68
2021/05/06 03:24:34;;;;;;;15.32;4.05;;;22.00;89.10;;;;;;5035991;28;20036;-67
2021/05/06 03:27:02;;;;;;;13.52;3.88;;;22.00;86.90;;;;;;5023819;28;20025;-64
2021/05/06 03:29:34;;;;;;;15.18;4.40;;;22.00;88.30;;;;;;5031721;28;20049;-67
2021/05/06 03:34:52;;;;;;;15.63;4.25;;;22.20;86.70;;;;;;5039028;28;20041;-64
2021/05/06 03:43:02;;;;;;;13.82;3.97;;;22.00;86.20;;;;;;5039746;28;20033;-66
2021/05/06 04:37:26;;;;;;;14.32;3.53;;;20.90;89.60;;;;;;5044146;28;20028;-68
2021/05/06 04:53:37;;;;;;;14.20;3.75;;;21.50;88.50;;;;;;5041599;28;20086;-71
2021/05/06 05:06:14;;;;;;;19.83;4.15;;;22.00;84.00;;;;;;5038424;28;20028;-70
2021/05/06 05:08:47;;;;;;;17.05;4.15;;;21.80;84.40;;;;;;5036799;28;20036;-68
2021/05/06 05:26:52;;;;;;;18.98;4.60;;;21.10;90.10;;;;;;5026234;28;20044;-68
2021/05/06 05:29:19;;;;;;;22.65;4.85;;;21.00;89.80;;;;;;5041964;28;20020;-67
2021/05/06 05:31:46;;;;;;;21.60;6.03;;;21.00;89.70;;;;;;5045199;28;20056;-67
2021/05/06 05:36:53;;;;;;;19.65;5.50;;;21.00;89.50;;;;;;5039109;28;20111;-65
2021/05/06 05:40:15;;;;;;;21.73;4.65;;;21.10;89.50;;;;;;5040792;28;20285;-67
2021/05/06 05:47:28;;;;;;;21.42;5.15;;;21.10;89.60;;;;;;5036769;28;20136;-66
2021/05/06 05:55:24;;;;;;;29.70;6.90;;;20.80;91.10;;;;;;5037803;28;20105;-65
2021/05/06 05:57:52;;;;;;;24.02;5.35;;;20.70;91.40;;;;;;5033446;28;20032;-65
2021/05/06 06:00:20;;;;;;;27.50;6.95;;;20.60;91.10;;;;;;5040792;28;20024;-65
2021/05/06 06:02:48;;;;;;;24.10;6.07;;;20.70;90.70;;;;;;5045054;28;20029;-66
2021/05/06 06:05:15;;;;;;;29.05;6.38;;;20.90;90.20;;;;;;5048692;28;20278;-68
2021/05/06 06:07:42;;;;;;;28.73;6.45;;;21.00;90.10;;;;;;5038111;28;20029;-68
2021/05/06 06:10:10;;;;;;;27.30;6.18;;;21.00;90.40;;;;;;5041966;28;20619;-66
2021/05/06 06:12:37;;;;;;;27.00;6.53;;;21.00;90.30;;;;;;5044501;28;20047;-65
2021/05/06 06:15:06;;;;;;;25.38;6.85;;;21.00;90.00;;;;;;5046604;28;20056;-66
2021/05/06 06:17:40;;;;;;;25.90;5.93;;;21.00;90.30;;;;;;5035417;28;20114;-67
2021/05/06 06:20:08;;;;;;;26.13;6.75;;;20.90;90.00;;;;;;5044913;28;20420;-64
2021/05/06 06:22:36;;;;;;;24.85;7.15;;;20.90;90.60;;;;;;5042086;28;20067;-67
2021/05/06 06:25:04;;;;;;;20.10;6.13;;;20.80;90.40;;;;;;5050351;28;20058;-65
2021/05/06 06:27:32;;;;;;;22.08;5.40;;;20.70;90.40;;;;;;5030061;28;20059;-65
2021/05/06 06:30:00;;;;;;;23.73;5.90;;;20.60;90.70;;;;;;5047533;28;20021;-66
2021/05/06 06:32:27;;;;;;;27.13;6.18;;;20.60;90.80;;;;;;5038425;28;20502;-65
2021/05/06 06:34:55;;;;;;;21.38;6.18;;;20.50;90.20;;;;;;5045517;28;20040;-65
2021/05/06 06:37:22;;;;;;;22.70;5.88;;;20.50;90.30;;;;;;5045069;28;20036;-65
2021/05/06 06:39:49;;;;;;;26.25;8.05;;;20.50;90.50;;;;;;5045383;28;20298;-66
2021/05/06 06:42:17;;;;;;;23.38;6.35;;;20.50;90.30;;;;;;5037833;28;20087;-63
2021/05/06 06:44:45;;;;;;;22.00;5.80;;;20.50;90.20;;;;;;5043362;28;20020;-63
2021/05/06 06:47:12;;;;;;;21.90;6.32;;;20.50;90.40;;;;;;5037596;28;20045;-62
2021/05/06 06:49:42;;;;;;;18.45;5.28;;;20.40;90.30;;;;;;5040754;28;20075;-70
2021/05/06 06:52:11;;;;;;;18.45;5.28;;;20.40;90.40;;;;;;5040576;28;20303;-70
2021/05/06 06:54:40;;;;;;;19.38;5.60;;;20.40;90.30;;;;;;5041598;28;20021;-63
2021/05/06 06:57:11;;;;;;;23.55;5.15;;;20.30;90.30;;;;;;5040324;28;20067;-63
2021/05/06 06:59:38;;;;;;;23.50;5.15;;;20.30;90.60;;;;;;5041414;28;20040;-63
2021/05/06 07:02:05;;;;;;;22.90;4.95;;;20.30;90.70;;;;;;5040704;28;20024;-64
2021/05/06 07:04:32;;;;;;;22.85;6.47;;;20.30;90.80;;;;;;5039551;28;20018;-70
2021/05/06 07:07:00;;;;;;;22.73;6.25;;;20.20;91.00;;;;;;5035955;28;20071;-65
2021/05/06 07:09:27;;;;;;;20.95;5.53;;;20.20;92.10;;;;;;5038533;28;20029;-65
2021/05/06 07:11:57;;;;;;;26.23;6.65;;;19.90;92.80;;;;;;5040036;28;20025;-66
2021/05/06 07:14:25;;;;;;;18.83;5.95;;;19.70;93.50;;;;;;5038677;28;20028;-72
2021/05/06 07:16:52;;;;;;;25.92;6.25;;;19.60;93.90;;;;;;5040379;28;20059;-70
2021/05/06 07:19:19;;;;;;;18.27;4.38;;;19.40;94.40;;;;;;5037176;28;20115;-64
2021/05/06 07:21:47;;;;;;;22.63;6.18;;;19.20;94.30;;;;;;5035003;28;20029;-68
2021/05/06 07:24:15;;;;;;;13.70;4.32;;;19.10;94.40;;;;;;5040549;28;20104;-66
2021/05/06 07:26:43;;;;;;;18.10;4.80;;;19.00;94.80;;;;;;5031711;28;20033;-64
2021/05/06 07:29:14;;;;;;;13.02;3.65;;;19.00;95.20;;;;;;5038985;28;20032;-65
2021/05/06 07:31:41;;;;;;;19.50;4.85;;;19.00;95.30;;;;;;5017807;28;20029;-64
2021/05/06 07:34:08;;;;;;;18.70;4.80;;;19.00;95.40;;;;;;5039109;28;20025;-65
2021/05/06 07:36:36;;;;;;;20.65;5.80;;;19.00;95.30;;;;;;5040298;28;20033;-73
2021/05/06 07:39:04;;;;;;;19.60;4.40;;;19.00;95.30;;;;;;5039386;28;20025;-72
2021/05/06 07:41:31;;;;;;;26.60;5.97;;;18.90;95.40;;;;;;5040238;28;20021;-63
2021/05/06 07:43:59;;;;;;;20.85;5.60;;;19.00;95.40;;;;;;5041788;28;20025;-64
2021/05/06 07:46:27;;;;;;;23.95;5.65;;;18.90;95.40;;;;;;5023962;28;20025;-63
2021/05/06 07:48:55;;;;;;;23.17;5.82;;;18.90;95.50;;;;;;5042066;28;20501;-71
2021/05/06 07:51:23;;;;;;;21.73;7.90;;;18.90;95.70;;;;;;5037519;28;20450;-70
2021/05/06 07:53:52;;;;;;;29.45;6.75;;;18.90;95.70;;;;;;5042814;28;20032;-63
2021/05/06 07:56:20;;;;;;;24.95;5.00;;;18.90;95.50;;;;;;5041866;28;20067;-62
2021/05/06 07:58:48;;;;;;;22.17;5.78;;;18.90;95.30;;;;;;5034589;28;20087;-73
2021/05/06 08:01:16;;;;;;;16.98;4.38;;;18.80;95.00;;;;;;5042832;28;20110;-67
2021/05/06 08:03:44;;;;;;;20.17;4.40;;;18.90;95.10;;;;;;5038802;28;20032;-64
2021/05/06 08:06:13;;;;;;;25.45;6.47;;;19.00;95.10;;;;;;5041965;28;20027;-67
2021/05/06 08:08:41;;;;;;;22.38;5.60;;;18.90;95.20;;;;;;5038394;28;20044;-65
2021/05/06 08:11:09;;;;;;;23.80;5.30;;;18.90;95.50;;;;;;5020946;28;20719;-67
2021/05/06 08:13:36;;;;;;;19.60;4.95;;;18.90;95.30;;;;;;5039913;28;20025;-64
2021/05/06 08:16:04;;;;;;;20.98;4.80;;;18.90;95.40;;;;;;5042095;28;20033;-66
2021/05/06 08:18:31;;;;;;;21.60;4.88;;;18.90;95.50;;;;;;5033077;28;20749;-64
2021/05/06 08:20:59;;;;;;;20.73;5.32;;;18.90;95.10;;;;;;5034861;28;20127;-72
2021/05/06 08:23:26;;;;;;;20.27;4.80;;;18.90;95.40;;;;;;5035774;28;20052;-70
2021/05/06 08:25:54;;;;;;;16.20;4.15;;;18.90;95.20;;;;;;5018357;28;20029;-66
2021/05/06 08:28:21;;;;;;;17.45;5.50;;;18.80;95.30;;;;;;5024962;28;20051;-66
2021/05/06 08:30:48;;;;;;;26.15;5.82;;;18.80;95.50;;;;;;5029854;28;20130;-74
2021/05/06 08:33:16;;;;;;;18.77;6.07;;;18.70;95.60;;;;;;5029892;28;20033;-66
2021/05/06 08:35:43;;;;;;;21.50;4.05;;;18.70;95.90;;;;;;5036813;28;20635;-70
2021/05/06 08:38:11;;;;;;;21.00;4.70;;;18.70;95.80;;;;;;5041309;28;20036;-72
2021/05/06 08:40:38;;;;;;;18.83;4.32;;;18.70;95.90;;;;;;5040537;28;20063;-65
2021/05/06 08:43:11;;;;;;;18.55;4.82;;;18.70;95.80;;;;;;5040848;28;20074;-66
2021/05/06 08:45:49;;;;;;;21.88;4.38;;;18.70;95.80;;;;;;5041256;28;20436;-75
2021/05/06 08:48:17;;;;;;;23.02;4.60;;;18.70;95.70;;;;;;5044505;28;20025;-65
2021/05/06 08:50:45;;;;;;;15.90;5.18;;;18.70;95.90;;;;;;5044302;28;20036;-66
2021/05/06 08:53:17;;;;;;;21.73;6.28;;;18.70;95.90;;;;;;5043982;28;20565;-70
2021/05/06 08:55:44;;;;;;;17.23;7.32;;;18.70;95.60;;;;;;5044887;28;20570;-63
2021/05/06 08:58:12;;;;;;;21.20;6.90;;;18.70;95.90;;;;;;5035604;28;20136;-65
2021/05/06 09:00:39;;;;;;;14.70;5.15;;;18.70;95.90;;;;;;5037757;28;20163;-71
2021/05/06 09:03:07;;;;;;;20.17;6.03;;;18.60;96.00;;;;;;5036064;28;20485;-72
2021/05/06 09:05:36;;;;;;;21.63;4.47;;;18.50;96.20;;;;;;5044089;28;20025;-73
2021/05/06 09:08:04;;;;;;;15.27;4.68;;;18.50;96.20;;;;;;5035966;28;20044;-72
2021/05/06 09:10:38;;;;;;;17.73;4.45;;;18.50;96.30;;;;;;5039642;28;20866;-67
2021/05/06 09:13:26;;;;;;;17.60;5.15;;;18.50;96.20;;;;;;5039908;28;20032;-64
2021/05/06 09:15:54;;;;;;;21.00;4.88;;;18.50;96.50;;;;;;5040927;28;20083;-70
2021/05/06 09:18:38;;;;;;;14.27;4.10;;;18.40;96.70;;;;;;5023296;28;20037;-63
2021/05/06 09:21:07;;;;;;;21.25;5.32;;;18.50;96.90;;;;;;5034883;28;20107;-70
2021/05/06 09:23:35;;;;;;;26.08;5.45;;;18.50;96.70;;;;;;5035948;28;20036;-66
2021/05/06 09:26:07;;;;;;;23.35;5.22;;;18.50;96.60;;;;;;5020202;28;20021;-70
2021/05/06 09:28:35;;;;;;;18.80;5.43;;;18.60;96.30;;;;;;5041080;28;20024;-61
2021/05/06 09:31:08;;;;;;;19.45;4.85;;;18.60;96.40;;;;;;5041301;28;20112;-63
2021/05/06 09:33:40;;;;;;;14.95;4.50;;;18.50;96.50;;;;;;5041227;28;20037;-69
2021/05/06 09:36:13;;;;;;;;;;;18.50;96.80;;;;;;5040674;28;20449;-62
2021/05/06 09:38:43;;;;;;;20.05;6.13;;;18.60;96.50;;;;;;5035878;28;20028;-65
2021/05/06 09:41:12;;;;;;;21.15;7.15;;;18.50;96.50;;;;;;5036077;28;20037;-65
2021/05/06 09:43:41;;;;;;;26.58;7.90;;;18.50;96.70;;;;;;5041370;28;20083;-63
2021/05/06 09:46:31;;;;;;;20.67;8.13;;;18.50;96.80;;;;;;5035979;28;20037;-69
2021/05/06 09:49:00;;;;;;;16.95;9.90;;;18.40;96.90;;;;;;5028925;28;20036;-60
2021/05/06 09:51:31;;;;;;;18.75;9.07;;;18.40;97.10;;;;;;5041765;28;20024;-61
2021/05/06 09:53:59;;;;;;;20.20;7.40;;;18.40;97.00;;;;;;5039107;28;20071;-70
2021/05/06 09:56:27;;;;;;;20.15;8.07;;;18.40;97.10;;;;;;5041322;28;20504;-63
2021/05/06 09:58:58;;;;;;;18.02;6.70;;;18.30;97.10;;;;;;5034602;28;20265;-62
2021/05/06 10:01:43;;;;;;;18.13;6.32;;;18.20;97.20;;;;;;5033462;28;20021;-71
2021/05/06 10:04:15;;;;;;;18.63;7.85;;;18.20;97.20;;;;;;5037351;28;20025;-64
2021/05/06 10:06:42;;;;;;;21.10;7.90;;;18.20;97.20;;;;;;5046363;28;20035;-66
2021/05/06 10:09:10;;;;;;;23.83;12.48;;;18.20;97.30;;;;;;5040040;28;20055;-61
2021/05/06 10:11:37;;;;;;;22.42;14.30;;;18.30;97.50;;;;;;5040888;28;20032;-71
2021/05/06 10:14:05;;;;;;;23.10;16.27;;;18.30;97.30;;;;;;5022860;28;20127;-72
2021/05/06 10:16:33;;;;;;;38.38;22.73;;;18.30;97.50;;;;;;5040875;28;20352;-72
2021/05/06 10:19:00;;;;;;;29.88;19.25;;;18.30;97.70;;;;;;5041054;28;20033;-66
2021/05/06 10:21:28;;;;;;;30.10;21.42;;;18.40;97.30;;;;;;5030699;28;20040;-72
2021/05/06 10:23:56;;;;;;;30.63;18.42;;;18.40;97.50;;;;;;5040268;28;20121;-73
2021/05/06 10:26:26;;;;;;;26.38;12.73;;;18.40;97.50;;;;;;5021728;28;20080;-64
2021/05/06 10:28:53;;;;;;;24.98;8.77;;;18.40;97.50;;;;;;5040243;28;20035;-65
2021/05/06 10:31:21;;;;;;;23.95;9.35;;;18.40;97.50;;;;;;5033736;28;20166;-65
2021/05/06 10:33:50;;;;;;;19.67;7.63;;;18.40;97.50;;;;;;5036981;28;20033;-70
2021/05/06 10:36:18;;;;;;;20.02;6.03;;;18.40;97.40;;;;;;5041493;28;20024;-66
2021/05/06 10:38:46;;;;;;;21.17;5.78;;;18.40;97.60;;;;;;5040814;28;20548;-69
2021/05/06 10:41:25;;;;;;;22.65;5.57;;;18.30;97.50;;;;;;5022934;28;20040;-65
2021/05/06 10:44:01;;;;;;;21.02;5.70;;;18.30;97.70;;;;;;5042837;28;20452;-73
2021/05/06 10:47:03;;;;;;;18.05;3.88;;;18.30;97.60;;;;;;5041764;28;20025;-72
2021/05/06 10:49:39;;;;;;;13.75;4.53;;;18.20;97.50;;;;;;5043142;28;20046;-65
2021/05/06 10:52:09;;;;;;;20.95;5.90;;;18.20;97.40;;;;;;5033472;28;20053;-64
2021/05/06 10:54:55;;;;;;;20.20;5.18;;;18.20;97.30;;;;;;5038267;28;20496;-70
2021/05/06 10:57:31;;;;;;;19.52;7.35;;;18.20;97.10;;;;;;5038347;28;20030;-64
2021/05/06 10:59:58;;;;;;;22.88;6.85;;;18.20;97.10;;;;;;5051734;28;20127;-71
2021/05/06 11:02:38;;;;;;;24.73;6.85;;;18.10;97.40;;;;;;5050992;28;20025;-61
2021/05/06 11:05:14;;;;;;;21.13;6.82;;;18.10;97.30;;;;;;5049682;28;20036;-63
2021/05/06 11:07:42;;;;;;;17.80;5.55;;;18.20;97.40;;;;;;5049317;28;20025;-71
2021/05/06 11:10:09;;;;;;;23.98;6.07;;;18.20;97.40;;;;;;5041104;28;20381;-64
2021/05/06 11:12:39;;;;;;;26.50;6.35;;;18.20;97.30;;;;;;5028807;28;20040;-61
2021/05/06 11:15:07;;;;;;;21.10;5.50;;;18.20;97.30;;;;;;5036936;28;20028;-61
2021/05/06 11:17:43;;;;;;;21.00;5.18;;;18.20;97.30;;;;;;5031404;28;20025;-64
2021/05/06 11:20:13;;;;;;;21.77;5.82;;;18.20;97.30;;;;;;5040309;28;20543;-65
2021/05/06 11:22:52;;;;;;;24.83;7.03;;;18.20;97.40;;;;;;5026953;28;20044;-64
2021/05/06 11:25:29;;;;;;;30.15;11.90;;;18.20;97.40;;;;;;5034422;28;20113;-61
2021/05/06 11:28:04;;;;;;;37.97;20.45;;;18.20;97.40;;;;;;5023980;28;20117;-64
2021/05/06 11:30:46;;;;;;;40.47;21.65;;;18.20;97.60;;;;;;5040288;28;20036;-70
2021/05/06 11:33:24;;;;;;;48.30;21.50;;;18.20;97.60;;;;;;5031846;28;20025;-63
2021/05/06 11:36:09;;;;;;;40.70;17.90;;;18.20;97.70;;;;;;5033572;28;20647;-63
2021/05/06 11:38:37;;;;;;;39.63;17.77;;;18.20;97.70;;;;;;5039791;28;20096;-64
2021/05/06 11:41:05;;;;;;;43.13;18.20;;;18.20;97.80;;;;;;5037233;28;20389;-63
2021/05/06 11:43:33;;;;;;;40.00;19.13;;;18.20;97.70;;;;;;5031843;28;20171;-63
2021/05/06 11:46:08;;;;;;;27.73;18.13;;;18.20;97.80;;;;;;5023041;28;20039;-68
2021/05/06 11:48:40;;;;;;;35.97;19.50;;;18.20;97.80;;;;;;5045359;28;20037;-66
2021/05/06 11:51:09;;;;;;;32.13;20.15;;;18.20;97.50;;;;;;5043921;28;20116;-64
2021/05/06 11:53:38;;;;;;;34.40;18.35;;;18.20;97.30;;;;;;5031865;28;20099;-63
2021/05/06 11:56:15;;;;;;;27.00;17.40;;;18.20;97.40;;;;;;5044569;28;20036;-68
2021/05/06 11:58:43;;;;;;;27.17;13.23;;;18.20;97.70;;;;;;5045877;28;20037;-68
2021/05/06 12:01:10;;;;;;;32.60;12.48;;;18.20;97.60;;;;;;5045213;28;20029;-65
2021/05/06 12:03:43;;;;;;;32.33;8.63;;;18.10;97.50;;;;;;5041122;28;20021;-71
2021/05/06 12:06:10;;;;;;;28.55;7.05;;;18.20;97.60;;;;;;5043857;28;20020;-65
2021/05/06 12:08:46;;;;;;;24.77;6.82;;;18.10;97.70;;;;;;5042576;28;20085;-65
2021/05/06 12:11:14;;;;;;;28.83;6.40;;;18.10;97.70;;;;;;5047705;28;20036;-71
2021/05/06 12:13:46;;;;;;;31.77;6.13;;;18.20;97.80;;;;;;5038154;28;20118;-70
2021/05/06 12:16:19;;;;;;;37.87;7.07;;;18.20;98.00;;;;;;5043723;28;20123;-65
2021/05/06 12:19:11;;;;;;;25.35;6.38;;;18.20;98.00;;;;;;5047788;28;20501;-62
2021/05/06 12:21:55;;;;;;;33.47;7.53;;;18.30;98.30;;;;;;5043474;28;20048;-65
2021/05/06 12:24:32;;;;;;;35.63;5.63;;;18.30;97.80;;;;;;5045190;28;20531;-66
2021/05/06 12:27:18;;;;;;;27.90;6.68;;;18.40;97.60;;;;;;5048321;28;20025;-65
2021/05/06 12:29:47;;;;;;;30.25;6.55;;;18.50;97.60;;;;;;5046690;28;20144;-64
2021/05/06 12:32:22;;;;;;;19.92;5.03;;;18.40;97.70;;;;;;5046511;28;20430;-70
2021/05/06 12:34:51;;;;;;;27.13;6.50;;;18.40;97.70;;;;;;5047170;28;20589;-70
2021/05/06 12:37:22;;;;;;;29.63;6.68;;;18.50;97.70;;;;;;5048454;28;20025;-70
2021/05/06 12:39:49;;;;;;;27.33;5.93;;;18.50;97.60;;;;;;5048671;28;20393;-63
2021/05/06 12:42:27;;;;;;;28.15;6.55;;;18.40;97.80;;;;;;5055856;28;20044;-70
2021/05/06 12:44:55;;;;;;;28.95;6.47;;;18.50;97.80;;;;;;5054744;28;20132;-63
2021/05/06 12:47:27;;;;;;;21.88;5.85;;;18.50;97.70;;;;;;5057851;28;20098;-67
2021/05/06 12:50:13;;;;;;;28.63;4.80;;;18.50;97.70;;;;;;5048442;28;20036;-70
2021/05/06 12:52:45;;;;;;;27.58;5.93;;;18.50;97.80;;;;;;5048622;28;20033;-63
2021/05/06 12:55:19;;;;;;;26.30;5.70;;;18.50;97.70;;;;;;5044076;28;20080;-62
2021/05/06 12:58:03;;;;;;;29.25;6.50;;;18.50;97.60;;;;;;5039790;28;20288;-65
2021/05/06 13:00:34;;;;;;;27.77;5.97;;;18.50;97.70;;;;;;5047622;28;20051;-68
2021/05/06 13:03:17;;;;;;;22.52;5.05;;;18.50;97.60;;;;;;5046822;28;20174;-69
2021/05/06 13:05:45;;;;;;;22.20;5.28;;;18.50;97.50;;;;;;5042711;28;20063;-70
2021/05/06 13:08:14;;;;;;;23.42;5.50;;;18.50;97.50;;;;;;5036681;28;20029;-69
2021/05/06 13:10:47;;;;;;;26.13;5.38;;;18.50;97.30;;;;;;5039818;28;20025;-65
2021/05/06 13:13:40;;;;;;;23.17;5.25;;;18.50;97.40;;;;;;5055409;28;20048;-71
2021/05/06 13:16:11;;;;;;;29.65;6.40;;;18.40;97.40;;;;;;5028528;28;20123;-63
2021/05/06 13:18:39;;;;;;;27.38;6.35;;;18.40;97.80;;;;;;5048663;28;20606;-68
2021/05/06 13:21:23;;;;;;;23.90;6.88;;;18.40;97.50;;;;;;5058762;28;20495;-66
2021/05/06 13:23:56;;;;;;;26.92;7.65;;;18.30;97.40;;;;;;5102388;23;20052;-69
2021/05/06 13:26:37;;;;;;;31.88;8.65;;;18.30;97.60;;;;;;5107555;28;20020;-69
2021/05/06 13:29:22;;;;;;;29.67;9.27;;;18.30;97.50;;;;;;5106629;27;20108;-64
2021/05/06 13:31:51;;;;;;;25.55;9.75;;;18.30;97.50;;;;;;5107846;27;20020;-68
2021/05/06 13:34:19;;;;;;;24.35;8.18;;;18.20;97.40;;;;;;5106767;28;20050;-65
2021/05/06 13:37:03;;;;;;;26.33;8.85;;;18.20;97.40;;;;;;5107660;28;20019;-63
2021/05/06 13:39:31;;;;;;;27.98;9.60;;;18.20;97.50;;;;;;5107323;28;20028;-71
2021/05/06 13:41:59;;;;;;;26.58;8.55;;;18.20;97.50;;;;;;5107471;28;20099;-64
2021/05/06 13:44:31;;;;;;;23.77;7.05;;;18.20;97.30;;;;;;5113644;27;20077;-72
2021/05/06 13:47:05;;;;;;;26.15;6.00;;;18.20;97.30;;;;;;5105820;28;20422;-72
2021/05/06 13:49:33;;;;;;;24.63;6.25;;;18.20;97.40;;;;;;5105950;28;20527;-64
2021/05/06 13:52:04;;;;;;;23.67;7.60;;;18.20;97.40;;;;;;5106871;28;20055;-63
2021/05/06 13:54:31;;;;;;;22.38;6.35;;;18.20;97.30;;;;;;5106644;28;20483;-65
2021/05/06 13:56:59;;;;;;;22.95;7.20;;;18.20;97.20;;;;;;5106085;28;20108;-68
2021/05/06 13:59:26;;;;;;;29.23;8.15;;;18.10;97.40;;;;;;5106515;28;20067;-64
2021/05/06 14:01:55;;;;;;;30.83;7.38;;;18.10;97.40;;;;;;5107563;28;20476;-62
2021/05/06 14:04:23;;;;;;;28.48;8.25;;;18.00;97.40;;;;;;5105694;28;20156;-65
2021/05/06 14:06:50;;;;;;;35.00;7.80;;;18.00;97.70;;;;;;5107024;28;20128;-70
2021/05/06 14:09:18;;;;;;;29.65;6.40;;;18.00;97.80;;;;;;5098607;28;20035;-63
2021/05/06 14:11:48;;;;;;;31.23;7.50;;;18.10;97.80;;;;;;5101886;28;20031;-65
2021/05/06 14:14:16;;;;;;;29.58;7.05;;;18.10;97.70;;;;;;5105606;28;20031;-66
2021/05/06 14:16:44;;;;;;;28.40;8.50;;;18.20;97.60;;;;;;5087526;28;20437;-68
2021/05/06 14:19:13;;;;;;;32.15;6.97;;;18.20;97.80;;;;;;5106634;27;20019;-72
2021/05/06 14:21:41;;;;;;;16.10;5.10;;;18.20;97.70;;;;;;5103717;28;20499;-71
2021/05/06 14:24:11;;;;;;;13.73;3.60;;;18.10;97.70;;;;;;5087062;28;20082;-66
2021/05/06 14:26:39;;;;;;;13.95;3.75;;;18.10;97.50;;;;;;5107711;27;20051;-63
2021/05/06 14:29:07;;;;;;;11.75;3.70;;;18.00;97.40;;;;;;5105699;28;20023;-73
2021/05/06 14:31:34;;;;;;;11.05;3.15;;;18.00;97.50;;;;;;5108359;27;20055;-72
2021/05/06 14:34:01;;;;;;;13.57;3.15;;;18.00;97.40;;;;;;5108375;27;20085;-64
2021/05/06 14:36:29;;;;;;;9.85;3.25;;;18.00;97.40;;;;;;5097577;28;20031;-67
2021/05/06 14:39:00;;;;;;;9.93;3.35;;;18.00;97.50;;;;;;4746095;28;9999804;-63
2021/05/06 14:41:27;;;;;;;8.70;2.45;;;17.90;97.10;;;;;;5107518;27;20415;-64
2021/05/06 14:43:55;;;;;;;15.02;2.72;;;18.00;97.40;;;;;;5108047;28;20035;-65
2021/05/06 14:46:22;;;;;;;8.27;2.55;;;18.00;97.30;;;;;;5109357;28;20035;-63
2021/05/06 14:48:51;;;;;;;9.23;2.30;;;18.00;97.20;;;;;;5103687;28;20024;-65
2021/05/06 14:51:18;;;;;;;11.55;3.08;;;18.00;96.90;;;;;;5105585;28;20037;-64
2021/05/06 14:53:45;;;;;;;15.32;3.63;;;18.00;97.00;;;;;;5109167;28;20043;-68
2021/05/06 14:56:13;;;;;;;10.45;2.95;;;18.00;97.00;;;;;;5108745;28;20061;-64
2021/05/06 14:58:40;;;;;;;21.13;5.88;;;18.00;97.40;;;;;;5107752;28;20112;-71
2021/05/06 15:01:07;;;;;;;24.73;8.52;;;18.00;97.50;;;;;;5106756;28;20024;-70
2021/05/06 15:03:34;;;;;;;19.48;11.23;;;17.90;97.40;;;;;;5108343;28;20387;-71
2021/05/06 15:06:03;;;;;;;22.77;10.15;;;17.90;97.80;;;;;;5108221;28;20478;-71
2021/05/06 15:08:30;;;;;;;18.83;8.73;;;17.90;97.70;;;;;;5108586;28;20027;-64
2021/05/06 15:10:57;;;;;;;18.35;6.45;;;17.90;97.80;;;;;;5108646;28;20400;-64
2021/05/06 15:13:25;;;;;;;14.55;5.75;;;17.90;98.00;;;;;;5107953;28;20039;-65
2021/05/06 15:15:52;;;;;;;12.43;5.78;;;17.90;97.50;;;;;;5108333;28;20027;-64
2021/05/06 15:18:19;;;;;;;17.95;6.72;;;18.00;97.70;;;;;;5108606;28;20072;-67
2021/05/06 15:20:46;;;;;;;16.17;6.35;;;17.90;97.80;;;;;;5105768;28;20779;-71
2021/05/06 15:23:14;;;;;;;14.77;5.55;;;17.90;97.90;;;;;;5106912;28;20044;-65
2021/05/06 15:25:41;;;;;;;16.20;6.90;;;17.90;98.00;;;;;;5105688;28;20015;-65
2021/05/06 15:28:08;;;;;;;20.08;7.03;;;17.90;98.10;;;;;;5103473;28;20020;-67
2021/05/06 15:30:35;;;;;;;17.65;5.55;;;18.00;98.00;;;;;;5103099;28;20177;-63
2021/05/06 15:33:03;;;;;;;18.15;5.25;;;18.00;98.00;;;;;;5080765;28;20030;-65
2021/05/06 15:35:30;;;;;;;14.40;4.85;;;18.00;98.00;;;;;;5107619;28;20065;-70
2021/05/06 15:37:57;;;;;;;12.57;3.63;;;18.10;97.80;;;;;;5107403;28;20106;-65
2021/05/06 15:40:26;;;;;;;21.70;4.35;;;18.10;97.50;;;;;;5106930;28;20072;-67
2021/05/06 15:42:53;;;;;;;15.02;4.45;;;18.10;97.50;;;;;;5107811;28;20043;-63
2021/05/06 15:45:21;;;;;;;18.40;4.47;;;18.10;97.40;;;;;;5106586;27;20016;-65
2021/05/06 15:47:48;;;;;;;14.02;5.85;;;18.10;97.60;;;;;;5082840;28;20036;-65
2021/05/06 15:50:15;;;;;;;13.43;6.47;;;18.10;97.60;;;;;;5088819;28;20054;-68
2021/05/06 15:52:44;;;;;;;14.27;8.45;;;18.10;97.60;;;;;;5103951;28;20112;-70
2021/05/06 15:55:13;;;;;;;20.13;9.20;;;18.10;97.90;;;;;;5102984;28;20617;-67
2021/05/06 15:57:44;;;;;;;18.10;7.13;;;18.10;97.80;;;;;;5091876;28;20028;-71
2021/05/06 16:00:16;;;;;;;13.82;6.70;;;18.10;97.60;;;;;;5106039;28;20034;-65
2021/05/06 16:02:46;;;;;;;11.70;5.18;;;18.10;97.70;;;;;;5106058;28;20023;-71
2021/05/06 16:05:25;;;;;;;13.40;4.90;;;18.10;97.70;;;;;;5107349;28;20020;-68
2021/05/06 16:07:54;;;;;;;14.93;5.15;;;18.10;97.70;;;;;;5107414;28;20474;-67
2021/05/06 16:10:23;;;;;;;11.55;4.13;;;18.10;97.60;;;;;;5104646;28;20036;-68
2021/05/06 16:12:51;;;;;;;20.98;6.35;;;18.10;97.60;;;;;;5106541;28;20517;-67
2021/05/06 16:15:19;;;;;;;12.05;5.35;;;18.10;97.70;;;;;;5096443;28;20081;-67
2021/05/06 16:17:46;;;;;;;22.13;7.45;;;18.10;97.80;;;;;;5096882;28;20027;-67